Latest Weather Observations for Armidale Airport

IDN60801

Issued at 3:03 am EDT Thursday 29 January 2015 (issued every 30 minutes, with the page automatically refreshed every 10 minutes)

About weather observations | Map of weather stations | Latest weather observations for NSW | Other Formats
Station Details ID: 056238 Name: ARMIDALE AIRPORT AWS Lat: -30.53 Lon: 151.62 Height: 1079.0 m
Data from the previous 72 hours. | See also: Recent months for locations in New South Wales
Date/Time
EDT
Temp
°C
App
Temp
°C
Dew
Point
Rel
Hum
%
Delta-T
°C
Wind Press
QNH
hPa
Press
MSL
hPa
Rain
since 9 am
mm
Dir
 
Spd
km/h
Gust
km/h
Spd
kts
Gust
kts
29/03:00am 10.3 8.3 10.0 98 0.2 E 11 13 6 7 1012.5 1006.4 0.0
29/02:30am 10.4 7.6 9.9 97 0.3 E 15 19 8 10 1012.7 1006.6 3.2
29/02:00am 10.1 7.6 9.8 98 0.2 ENE 13 15 7 8 1013.1 1007.1 3.2
29/01:30am 9.6 8.1 9.3 98 0.2 NE 7 9 4 5 1013.6 1007.5 3.2
29/01:00am 10.0 7.1 9.7 98 0.2 ENE 15 17 8 9 1013.7 1007.6 3.2
29/12:30am 10.3 7.9 10.0 98 0.2 NE 13 15 7 8 1014.0 1008.0 3.2
29/12:00am 10.5 8.5 10.2 98 0.2 ESE 11 15 6 8 1014.3 1008.2 3.2
 
Date/Time
EDT
Temp
°C
App
Temp
°C
Dew
Point
Rel
Hum
%
Delta-T
°C
Wind Press
QNH
hPa
Press
MSL
hPa
Rain
since 9 am
mm
Dir
 
Spd
km/h
Gust
km/h
Spd
kts
Gust
kts
28/11:30pm 10.7 8.3 9.9 95 0.4 E 13 20 7 11 1014.1 1008.1 3.2
28/11:00pm 11.0 8.9 9.9 93 0.6 E 11 15 6 8 1014.1 1008.1 3.2
28/10:30pm 11.3 9.0 10.5 95 0.4 E 13 19 7 10 1014.3 1008.2 3.2
28/10:00pm 11.6 9.0 10.7 94 0.5 E 15 20 8 11 1014.3 1008.2 3.2
28/09:30pm 11.8 10.0 10.7 93 0.6 E 11 17 6 9 1014.1 1008.1 3.2
28/09:00pm 11.9 9.6 10.3 90 0.9 ESE 13 19 7 10 1013.9 1007.9 3.2
28/08:30pm 12.3 9.5 10.0 86 1.2 ESE 15 20 8 11 1013.8 1007.7 3.0
28/08:00pm 12.4 8.7 9.4 82 1.6 ESE 19 28 10 15 1013.7 1007.6 3.0
28/07:30pm 12.6 8.9 9.4 81 1.7 ESE 19 30 10 16 1013.6 1007.5 3.0
28/07:04pm 12.8 8.4 10.3 85 1.4 SE 24 33 13 18 1013.0 1006.9 3.0
28/07:03pm 12.8 8.4 10.5 86 1.3 SE 24 37 13 20 1013.0 1006.9 3.0
28/07:00pm 12.7 8.3 10.4 86 1.3 SE 24 39 13 21 1013.0 1006.9 3.0
28/06:44pm 13.3 10.0 12.8 97 0.3 ESE 22 32 12 17 1012.9 1006.8 3.0
28/06:30pm 13.8 10.8 12.4 91 0.8 ESE 20 30 11 16 1012.8 1006.7 3.0
28/06:21pm 14.0 11.2 12.6 91 0.8 ESE 19 26 10 14 1012.7 1006.6 3.0
28/06:00pm 14.0 10.4 12.0 88 1.1 SE 22 32 12 17 1012.5 1006.4 3.0
28/05:30pm 14.8 11.5 12.7 87 1.2 ESE 22 30 12 16 1012.5 1006.4 3.0
28/05:00pm 14.5 10.3 12.5 88 1.2 SE 26 35 14 19 1012.4 1006.3 3.0
28/04:51pm 13.9 10.2 12.6 92 0.7 SE 24 41 13 22 1012.5 1006.4 3.0
28/04:48pm 13.6 9.5 12.7 94 0.5 SE 26 41 14 22 1012.5 1006.4 3.0
28/04:33pm 13.3 9.2 12.8 97 0.3 SE 26 37 14 20 1012.5 1006.4 3.0
28/04:30pm 13.7 9.7 13.1 96 0.3 SE 26 35 14 19 1012.4 1006.3 3.0
28/04:25pm 14.4 10.3 13.9 97 0.3 SE 28 35 15 19 1012.3 1006.2 3.0
28/04:00pm 16.4 13.7 13.5 83 1.7 ESE 20 28 11 15 1012.1 1006.0 2.8
28/03:30pm 15.9 13.4 13.6 86 1.4 ESE 19 28 10 15 1012.4 1006.3 2.8
28/03:00pm 16.3 13.0 12.8 80 2.0 SE 22 30 12 16 1012.4 1006.3 2.8
28/02:49pm 16.7 13.7 13.6 82 1.8 SE 22 30 12 16 1012.4 1006.3 2.8
28/02:30pm 16.0 12.9 13.5 85 1.5 ESE 22 28 12 15 1012.5 1006.4 2.8
28/02:28pm 16.1 13.1 13.8 86 1.4 ESE 22 28 12 15 1012.5 1006.4 2.8
28/02:25pm 16.2 13.2 13.7 85 1.5 ESE 22 32 12 17 1012.5 1006.4 2.8
28/02:00pm 14.5 12.2 14.2 98 0.2 SE 19 26 10 14 1012.7 1006.6 2.8
28/01:30pm 15.3 12.7 15.0 98 0.2 SE 22 33 12 18 1012.8 1006.7 2.8
28/01:00pm 14.9 12.6 14.6 98 0.2 ESE 20 26 11 14 1012.9 1006.8 2.8
28/12:30pm 15.0 13.3 14.7 98 0.2 ESE 17 22 9 12 1013.0 1006.9 2.8
28/12:00pm 14.6 12.2 14.3 98 0.2 ESE 20 28 11 15 1013.0 1006.9 2.8
28/11:30am 14.7 12.9 14.4 98 0.2 ESE 17 26 9 14 1013.0 1006.9 2.8
28/11:00am 14.1 11.5 13.9 99 0.1 ESE 20 30 11 16 1013.0 1006.9 2.8
28/10:30am 14.2 11.7 14.0 99 0.1 ESE 20 30 11 16 1012.9 1006.8 2.8
28/10:24am 14.1 11.5 13.9 99 0.1 ESE 20 28 11 15 1012.9 1006.8 2.8
28/10:00am 13.9 11.5 13.7 99 0.1 E 19 24 10 13 1012.9 1006.8 2.4
28/09:40am 13.4 10.6 13.2 99 0.1 E 20 28 11 15 1012.7 1006.6 0.4
28/09:30am 13.4 10.2 13.2 99 0.1 E 22 28 12 15 1012.8 1006.7 0.4
28/09:07am 13.1 10.2 12.9 99 0.1 E 20 30 11 16 1012.7 1006.6 0.0
28/09:00am 12.9 9.9 12.7 99 0.1 ESE 20 30 11 16 1012.7 1006.6 37.6
28/08:39am 12.8 9.8 12.6 99 0.1 ESE 20 28 11 15 1012.5 1006.4 37.6
28/08:32am 12.9 10.1 12.7 99 0.1 ESE 19 26 10 14 1012.4 1006.3 37.6
28/08:30am 12.9 10.1 12.7 99 0.1 ESE 19 26 10 14 1012.4 1006.3 37.6
28/08:11am 13.1 10.4 12.9 99 0.1 ESE 19 26 10 14 1012.3 1006.2 37.6
28/08:00am 12.9 10.1 12.7 99 0.1 ESE 19 26 10 14 1012.1 1006.0 37.6
28/07:30am 12.5 9.4 12.3 99 0.1 E 20 30 11 16 1011.8 1005.7 37.6
28/07:03am 12.4 9.5 12.2 99 0.1 E 19 24 10 13 1011.4 1005.2 37.6
28/07:00am 12.3 9.3 12.1 99 0.1 E 19 24 10 13 1011.4 1005.2 37.6
28/06:38am 12.3 10.1 12.1 99 0.1 ESE 15 20 8 11 1011.4 1005.2 37.6
28/06:30am 12.3 9.7 12.1 99 0.1 E 17 24 9 13 1011.3 1005.1 37.6
28/06:00am 12.2 9.2 12.0 99 0.1 E 19 26 10 14 1010.8 1004.7 37.6
28/05:30am 12.1 8.9 11.9 99 0.1 E 20 26 11 14 1010.7 1004.6 37.6
28/05:00am 12.2 9.0 12.0 99 0.1 E 20 28 11 15 1010.8 1004.7 37.6
28/04:30am 12.2 8.3 12.0 99 0.1 E 24 32 13 17 1010.7 1004.6 37.6
28/04:00am 12.2 8.6 12.0 99 0.1 E 22 33 12 18 1010.5 1004.3 37.6
28/03:30am 12.0 8.8 11.8 99 0.1 E 20 28 11 15 1010.5 1004.3 37.6
28/03:00am 11.8 8.5 11.6 99 0.1 E 20 26 11 14 1010.8 1004.7 37.6
28/02:42am 11.7 8.0 11.4 98 0.2 E 22 32 12 17 1011.0 1004.9 37.6
28/02:40am 11.7 8.0 11.4 98 0.2 E 22 32 12 17 1010.9 1004.8 37.6
28/02:30am 11.8 8.1 11.5 98 0.2 E 22 32 12 17 1010.8 1004.7 37.6
28/02:26am 11.8 7.7 11.5 98 0.2 E 24 32 13 17 1010.8 1004.7 37.6
28/02:00am 11.8 7.3 11.5 98 0.2 E 26 39 14 21 1011.1 1005.0 37.6
28/01:58am 11.8 7.0 11.5 98 0.2 E 28 39 15 21 1011.0 1004.9 37.6
28/01:46am 11.7 6.8 11.4 98 0.2 E 28 35 15 19 1010.8 1004.7 37.6
28/01:39am 11.6 7.5 11.3 98 0.2 E 24 33 13 18 1011.1 1005.0 37.6
28/01:30am 11.6 7.5 11.3 98 0.2 E 24 32 13 17 1011.6 1005.5 37.6
28/01:23am 11.7 7.2 11.4 98 0.2 E 26 43 14 23 1011.9 1005.8 37.6
28/01:17am 11.7 6.4 11.4 98 0.2 ENE 30 43 16 23 1011.5 1005.4 37.6
28/01:00am 11.7 6.4 11.4 98 0.2 E 30 39 16 21 1011.6 1005.5 37.6
28/12:30am 11.9 6.7 11.7 99 0.1 ENE 30 43 16 23 1011.6 1005.5 37.6
28/12:00am 12.3 7.6 12.1 99 0.1 E 28 43 15 23 1011.9 1005.8 37.6
 
Date/Time
EDT
Temp
°C
App
Temp
°C
Dew
Point
Rel
Hum
%
Delta-T
°C
Wind Press
QNH
hPa
Press
MSL
hPa
Rain
since 9 am
mm
Dir
 
Spd
km/h
Gust
km/h
Spd
kts
Gust
kts
27/11:43pm 12.3 6.9 12.3 100 0.0 E 32 50 17 27 1011.9 1005.8 37.6
27/11:34pm 12.4 7.1 12.4 100 0.0 ENE 32 44 17 24 1012.0 1005.9 37.6
27/11:30pm 12.5 7.2 12.5 100 0.0 ENE 32 44 17 24 1012.1 1006.0 37.6
27/11:15pm 12.5 8.0 12.5 100 0.0 E 28 37 15 20 1012.6 1006.5 37.4
27/11:00pm 12.6 9.2 12.6 100 0.0 E 22 30 12 16 1014.0 1008.0 37.4
27/10:36pm 12.5 9.0 12.3 99 0.1 ENE 22 30 12 16 1014.6 1008.5 37.2
27/10:30pm 12.4 8.9 12.2 99 0.1 ENE 22 28 12 15 1014.7 1008.6 37.2
27/10:22pm 12.4 8.5 12.2 99 0.1 ENE 24 30 13 16 1014.7 1008.6 36.8
27/10:00pm 12.3 8.8 12.1 99 0.1 E 22 32 12 17 1014.8 1008.8 36.6
27/09:30pm 12.3 8.4 12.1 99 0.1 ENE 24 30 13 16 1014.5 1008.4 35.8
27/09:00pm 12.9 10.9 12.7 99 0.1 ENE 15 20 8 11 1014.3 1008.2 35.0
27/08:30pm 12.9 10.1 12.7 99 0.1 ESE 19 24 10 13 1013.9 1007.9 34.0
27/08:12pm 13.3 11.8 13.1 99 0.1 E 13 17 7 9 1014.0 1008.0 33.2
27/08:00pm 13.3 11.4 13.1 99 0.1 E 15 22 8 12 1013.9 1007.9 32.0
27/07:30pm 13.5 11.3 13.3 99 0.1 ESE 17 24 9 13 1013.4 1007.3 28.0
27/07:25pm 13.6 11.1 13.4 99 0.1 E 19 24 10 13 1013.4 1007.3 27.2
27/07:24pm 13.6 11.1 13.4 99 0.1 E 19 24 10 13 1013.4 1007.3 26.8
27/07:00pm 13.9 10.5 13.7 99 0.1 E 24 33 13 18 1012.4 1006.3 23.8
27/06:30pm 14.4 11.9 14.2 99 0.1 ESE 20 30 11 16 1011.8 1005.7 19.6
27/06:00pm 14.6 11.8 14.4 99 0.1 ESE 22 30 12 16 1011.1 1005.0 16.6
27/05:30pm 14.7 11.2 14.5 99 0.1 E 26 35 14 19 1010.7 1004.6 14.2
27/05:23pm 14.7 11.2 14.5 99 0.1 E 26 35 14 19 1010.9 1004.8 13.0
27/05:22pm 14.7 11.2 14.5 99 0.1 E 26 35 14 19 1010.9 1004.8 13.0
27/05:04pm 14.7 10.4 14.5 99 0.1 ESE 30 41 16 22 1010.1 1004.0 11.6
27/05:00pm 14.8 10.6 14.6 99 0.1 E 30 41 16 22 1009.9 1003.8 11.2
27/04:51pm 15.0 10.9 14.8 99 0.1 E 30 43 16 23 1009.7 1003.6 10.8
27/04:37pm 15.1 10.6 14.9 99 0.1 E 32 44 17 24 1009.8 1003.7 10.6
27/04:31pm 15.2 10.6 15.0 99 0.1 E 33 43 18 23 1010.1 1004.0 10.0
27/04:30pm 15.2 10.6 15.0 99 0.1 E 33 43 18 23 1010.3 1004.1 9.8
27/04:06pm 15.4 12.2 15.2 99 0.1 ESE 26 35 14 19 1010.3 1004.1 6.4
27/04:00pm 15.4 12.5 15.2 99 0.1 ESE 24 33 13 18 1010.7 1004.6 5.0
27/03:30pm 16.0 13.0 15.8 99 0.1 ESE 26 33 14 18 1010.5 1004.3 3.6
27/03:07pm 16.4 12.8 16.2 99 0.1 E 30 39 16 21 1011.3 1005.1 2.8
27/03:00pm 16.6 13.4 16.4 99 0.1 E 28 39 15 21 1011.1 1005.0 2.8
27/02:45pm 17.0 14.3 16.7 98 0.2 ESE 26 33 14 18 1011.3 1005.1 2.2
27/02:30pm 18.1 15.8 16.6 91 0.9 E 24 33 13 18 1011.4 1005.2 0.2
27/02:00pm 19.3 17.1 17.8 91 1.0 E 26 33 14 18 1011.6 1005.5 0.2
27/01:43pm 19.3 16.6 16.7 85 1.6 E 26 33 14 18 1011.6 1005.5 0.2
27/01:30pm 19.9 17.6 16.7 82 2.0 E 24 30 13 16 1011.7 1005.6 0.2
27/01:00pm 20.3 17.6 16.7 80 2.3 E 26 30 14 16 1012.4 1006.3 0.2
27/12:30pm 21.5 20.2 17.3 77 2.7 E 20 32 11 17 1012.9 1006.8 0.2
27/12:00pm 21.6 20.3 17.2 76 2.8 ENE 20 30 11 16 1013.4 1007.3 0.2
27/11:30am 21.9 20.5 17.9 78 2.6 E 22 32 12 17 1013.6 1007.5 0.2
27/11:00am 21.7 20.4 17.3 76 2.8 E 20 26 11 14 1013.9 1007.9 0.2
27/10:30am 21.2 19.6 16.4 74 3.0 ENE 20 26 11 14 1013.9 1007.9 0.2
27/10:00am 19.9 18.4 16.3 80 2.3 ENE 19 26 10 14 1013.9 1007.9 0.0
27/09:30am 18.8 17.4 17.1 90 1.1 ENE 20 28 11 15 1013.7 1007.6 0.0
27/09:00am 17.9 16.5 16.6 92 0.8 E 19 26 10 14 1013.9 1007.9 4.2
27/08:30am 17.6 15.9 17.1 97 0.3 E 22 33 12 18 1013.9 1007.9 4.2
27/08:00am 16.8 14.8 16.5 98 0.2 ENE 22 30 12 16 1013.6 1007.5 4.2
27/07:51am 16.8 15.2 16.6 99 0.1 ENE 20 24 11 13 1013.7 1007.6 4.2
27/07:30am 16.6 15.0 16.4 99 0.1 E 20 26 11 14 1013.6 1007.5 4.2
27/07:00am 16.5 14.1 16.3 99 0.1 ENE 24 35 13 19 1013.3 1007.2 4.2
27/06:48am 16.3 14.2 16.1 99 0.1 ENE 22 28 12 15 1013.3 1007.2 4.2
27/06:30am 16.0 14.1 15.8 99 0.1 E 20 28 11 15 1013.0 1006.9 4.2
27/06:24am 16.0 14.2 16.0 100 0.0 E 20 26 11 14 1012.9 1006.8 4.2
27/06:00am 16.0 13.8 16.0 100 0.0 ENE 22 30 12 16 1012.7 1006.6 4.2
27/05:30am 16.0 13.4 16.0 100 0.0 E 24 32 13 17 1012.5 1006.4 4.2
27/05:00am 16.0 13.8 16.0 100 0.0 E 22 30 12 16 1012.4 1006.3 4.2
27/04:50am 15.8 13.9 15.8 100 0.0 E 20 26 11 14 1012.5 1006.4 4.2
27/04:30am 15.8 14.1 15.8 100 0.0 E 19 20 10 11 1012.5 1006.4 4.2
27/04:29am 15.8 14.1 15.8 100 0.0 E 19 22 10 12 1012.5 1006.4 4.2
27/04:00am 15.9 14.3 15.9 100 0.0 E 19 24 10 13 1012.5 1006.4 4.2
27/03:30am 16.0 14.2 16.0 100 0.0 E 20 26 11 14 1012.9 1006.8 4.2
27/03:00am 16.1 14.3 16.1 100 0.0 ENE 20 24 11 13 1013.0 1006.9 4.2
27/02:30am 16.2 14.0 16.0 99 0.1 ENE 22 28 12 15 1013.1 1007.1 4.2
27/02:00am 16.2 14.0 16.0 99 0.1 E 22 30 12 16 1013.5 1007.4 4.2
27/01:30am 16.5 15.4 16.3 99 0.1 E 17 22 9 12 1013.8 1007.7 4.2
27/01:18am 16.6 15.5 16.4 99 0.1 E 17 22 9 12 1014.1 1008.1 4.2
27/01:17am 16.6 15.5 16.4 99 0.1 E 17 24 9 13 1014.1 1008.1 4.2
27/01:00am 16.8 14.9 16.6 99 0.1 E 22 28 12 15 1014.3 1008.2 4.2
27/12:30am 17.2 15.4 17.0 99 0.1 E 22 28 12 15 1014.8 1008.8 4.2
27/12:00am 17.4 16.1 17.2 99 0.1 E 20 26 11 14 1015.0 1009.0 4.2
 
Date/Time
EDT
Temp
°C
App
Temp
°C
Dew
Point
Rel
Hum
%
Delta-T
°C
Wind Press
QNH
hPa
Press
MSL
hPa
Rain
since 9 am
mm
Dir
 
Spd
km/h
Gust
km/h
Spd
kts
Gust
kts
26/11:30pm 17.7 16.1 17.5 99 0.1 E 22 32 12 17 1014.8 1008.8 4.2
26/11:00pm 17.8 15.9 17.6 99 0.1 E 24 30 13 16 1014.6 1008.5 4.2
26/10:41pm 17.8 16.6 17.6 99 0.1 E 20 26 11 14 1014.7 1008.6 4.2
26/10:30pm 17.9 16.0 17.7 99 0.1 E 24 32 13 17 1014.7 1008.6 4.2
26/10:00pm 18.1 17.6 17.9 99 0.1 ESE 17 22 9 12 1014.8 1008.8 4.2
26/09:59pm 18.1 17.6 17.9 99 0.1 ESE 17 22 9 12 1014.8 1008.8 4.2
26/09:30pm 18.4 18.4 18.1 98 0.2 E 15 24 8 13 1014.8 1008.8 4.2
26/09:20pm 18.4 18.4 18.1 98 0.2 E 15 20 8 11 1014.9 1008.9 4.2
26/09:08pm 18.4 17.6 18.1 98 0.2 E 19 26 10 14 1014.8 1008.8 4.2
26/09:00pm 18.3 17.5 18.0 98 0.2 E 19 26 10 14 1014.8 1008.8 4.2
26/08:30pm 18.5 18.5 18.2 98 0.2 E 15 20 8 11 1014.5 1008.4 4.2
26/08:28pm 18.5 18.5 18.2 98 0.2 E 15 17 8 9 1014.5 1008.4 4.2
26/08:18pm 18.2 17.7 16.9 92 0.8 ENE 15 20 8 11 1014.4 1008.3 4.2
26/08:00pm 18.6 18.0 17.6 94 0.6 ENE 17 22 9 12 1014.0 1008.0 4.2
26/07:33pm 18.6 17.3 15.7 83 1.8 ENE 17 20 9 11 1013.6 1007.5 4.2
26/07:30pm 18.5 17.2 15.7 84 1.7 ENE 17 19 9 10 1013.6 1007.5 4.2
26/07:00pm 19.0 17.2 15.5 80 2.2 E 19 26 10 14 1013.5 1007.4 4.2
26/06:30pm 19.5 18.3 19.2 98 0.2 ENE 24 33 13 18 1012.8 1006.7 4.2
26/06:06pm 19.5 17.5 19.2 98 0.2 E 28 37 15 20 1012.6 1006.5 4.2
26/06:00pm 19.5 17.9 19.2 98 0.2 E 26 37 14 20 1012.6 1006.5 4.2
26/05:42pm 20.1 20.5 19.8 98 0.2 E 17 24 9 13 1013.1 1007.1 4.2
26/05:33pm 20.0 19.4 19.7 98 0.2 E 22 30 12 16 1012.9 1006.8 4.2
26/05:30pm 20.0 19.0 19.7 98 0.2 E 24 32 13 17 1012.9 1006.8 4.2
26/05:00pm 20.2 20.3 19.9 98 0.2 E 19 26 10 14 1012.6 1006.5 4.2
26/04:40pm 20.2 21.0 19.9 98 0.2 E 15 20 8 11 1012.8 1006.7 4.2
26/04:30pm 20.1 20.5 19.8 98 0.2 ENE 17 26 9 14 1012.9 1006.8 3.8
26/04:00pm 20.2 20.3 19.9 98 0.2 E 19 24 10 13 1013.1 1007.1 3.8
26/03:56pm 20.2 20.6 19.9 98 0.2 E 17 22 9 12 1013.3 1007.2 3.8
26/03:30pm 19.5 19.3 19.3 99 0.1 ESE 19 24 10 13 1013.3 1007.2 3.8
26/03:12pm 18.3 17.9 18.1 99 0.1 SSE 17 26 9 14 1013.6 1007.5 3.8
26/03:00pm 18.7 19.6 18.4 98 0.2 SSE 11 19 6 10 1014.1 1008.1 3.6
26/02:53pm 18.3 17.8 17.7 96 0.4 S 17 26 9 14 1014.3 1008.2 3.0
26/02:52pm 18.4 17.9 17.8 96 0.4 S 17 26 9 14 1014.4 1008.3 2.8
26/02:44pm 20.1 21.4 19.4 96 0.5 SE 11 19 6 10 1014.4 1008.3 1.6
26/02:30pm 20.1 21.2 19.6 97 0.3 ENE 13 19 7 10 1014.1 1008.1 1.4
26/02:00pm 20.0 20.6 19.5 97 0.3 ENE 15 24 8 13 1013.7 1007.6 1.4
26/01:59pm 20.1 20.4 19.6 97 0.3 ENE 17 24 9 13 1013.6 1007.5 1.4
26/01:30pm 20.6 18.8 18.7 89 1.2 ENE 26 33 14 18 1013.0 1006.9 1.2
26/01:22pm 20.8 19.6 19.3 91 1.0 E 24 32 13 17 1012.5 1006.4 1.2
26/01:04pm 21.1 19.9 19.2 89 1.3 E 24 33 13 18 1013.0 1006.9 1.2
26/01:00pm 21.1 20.1 18.9 87 1.4 ENE 22 33 12 18 1012.8 1006.7 1.2
26/12:30pm 20.9 21.0 18.3 85 1.7 ENE 15 20 8 11 1013.4 1007.3 1.2
26/12:00pm 21.4 21.0 19.0 86 1.6 E 19 28 10 15 1014.0 1008.0 0.8
26/11:30am 23.2 22.3 18.1 73 3.3 E 20 30 11 16 1013.8 1007.7 0.0
26/11:00am 25.2 24.9 19.6 71 3.8 E 20 28 11 15 1013.7 1007.6 0.0
26/10:30am 24.1 24.0 18.7 72 3.6 E 17 24 9 13 1014.4 1008.3 0.0
26/10:00am 23.1 22.1 18.0 73 3.3 E 20 28 11 15 1014.1 1008.1 0.0
26/09:30am 22.6 21.0 18.4 77 2.8 E 24 30 13 16 1013.9 1007.9 0.0
26/09:00am 21.6 21.1 19.0 85 1.7 ENE 20 26 11 14 1014.0 1008.0 0.0
26/08:56am 21.1 20.2 18.3 84 1.8 ENE 20 26 11 14 1014.0 1008.0 0.0
26/08:31am 20.2 19.7 19.0 93 0.8 E 20 30 11 16 1014.1 1008.1 0.0
26/08:30am 20.0 18.8 18.3 90 1.1 E 22 30 12 16 1014.1 1008.1 0.0
26/08:00am 19.8 19.3 19.1 96 0.5 E 20 28 11 15 1014.1 1008.1 0.0
26/07:30am 19.2 19.6 18.9 98 0.2 E 15 19 8 10 1013.8 1007.7 0.0
26/07:00am 18.4 18.0 18.1 98 0.2 ESE 17 20 9 11 1013.5 1007.4 0.0
26/06:30am 16.2 15.7 16.0 99 0.1 ENE 13 13 7 7 1012.9 1006.8 0.0
26/06:00am 17.0 16.4 16.7 98 0.2 E 15 17 8 9 1012.5 1006.4 0.0
26/05:30am 17.2 17.1 16.9 98 0.2 E 13 15 7 8 1012.3 1006.2 0.0
26/05:00am 17.1 16.9 16.8 98 0.2 E 13 15 7 8 1012.3 1006.2 0.0
26/04:30am 16.9 17.0 16.6 98 0.2 E 11 13 6 7 1012.0 1005.9 0.0
26/04:00am 16.9 17.7 16.4 97 0.3 E 7 9 4 5 1012.0 1005.9 0.0
26/03:30am 17.2 17.9 16.2 94 0.6 ESE 7 9 4 5 1011.9 1005.8 0.0

Other Formats:

Comma delimited format used in spreadsheet applications
http://www.bom.gov.au/fwo/IDN60801/IDN60801.95773.axf

JavaScript Object Notation format (JSON) in row-major order
http://www.bom.gov.au/fwo/IDN60801/IDN60801.95773.json